sensor_id;sensor_type;location;lat;lon;timestamp;temperature;humidity
51793;DHT22;37850;53.178;6.376;2023-01-08T00:01:26;9.40;99.90
51793;DHT22;37850;53.178;6.376;2023-01-08T00:03:52;9.40;99.90
51793;DHT22;37850;53.178;6.376;2023-01-08T00:06:19;9.40;99.90
51793;DHT22;37850;53.178;6.376;2023-01-08T00:08:50;9.40;99.90
51793;DHT22;37850;53.178;6.376;2023-01-08T00:11:16;9.40;99.90
51793;DHT22;37850;53.178;6.376;2023-01-08T00:13:42;9.50;99.90
51793;DHT22;37850;53.178;6.376;2023-01-08T00:16:11;9.50;99.90
51793;DHT22;37850;53.178;6.376;2023-01-08T00:18:37;9.50;99.90
51793;DHT22;37850;53.178;6.376;2023-01-08T00:21:03;9.50;99.90
51793;DHT22;37850;53.178;6.376;2023-01-08T00:23:30;9.50;99.90
51793;DHT22;37850;53.178;6.376;2023-01-08T00:25:55;9.50;99.90
51793;DHT22;37850;53.178;6.376;2023-01-08T00:28:21;9.60;99.90
51793;DHT22;37850;53.178;6.376;2023-01-08T00:30:47;9.60;99.90
51793;DHT22;37850;53.178;6.376;2023-01-08T00:33:14;9.60;99.90
51793;DHT22;37850;53.178;6.376;2023-01-08T00:35:40;9.60;99.90
51793;DHT22;37850;53.178;6.376;2023-01-08T00:38:06;9.60;99.90
51793;DHT22;37850;53.178;6.376;2023-01-08T00:40:33;9.60;99.90
51793;DHT22;37850;53.178;6.376;2023-01-08T00:42:59;9.60;99.90
51793;DHT22;37850;53.178;6.376;2023-01-08T00:45:27;9.60;99.90
51793;DHT22;37850;53.178;6.376;2023-01-08T00:47:53;9.60;99.90
51793;DHT22;37850;53.178;6.376;2023-01-08T00:50:19;9.60;99.90
51793;DHT22;37850;53.178;6.376;2023-01-08T00:52:45;9.60;99.90
51793;DHT22;37850;53.178;6.376;2023-01-08T00:55:10;9.60;99.90
51793;DHT22;37850;53.178;6.376;2023-01-08T00:57:37;9.50;99.90
51793;DHT22;37850;53.178;6.376;2023-01-08T01:00:06;9.60;99.90
51793;DHT22;37850;53.178;6.376;2023-01-08T01:02:37;9.60;99.90
51793;DHT22;37850;53.178;6.376;2023-01-08T01:05:04;9.60;99.90
51793;DHT22;37850;53.178;6.376;2023-01-08T01:07:30;9.50;99.90
51793;DHT22;37850;53.178;6.376;2023-01-08T01:09:56;9.60;99.90
51793;DHT22;37850;53.178;6.376;2023-01-08T01:12:25;9.60;99.90
51793;DHT22;37850;53.178;6.376;2023-01-08T01:14:50;9.60;99.90
51793;DHT22;37850;53.178;6.376;2023-01-08T01:17:16;9.50;99.90
51793;DHT22;37850;53.178;6.376;2023-01-08T01:19:42;9.50;99.90
51793;DHT22;37850;53.178;6.376;2023-01-08T01:22:08;9.50;99.90
51793;DHT22;37850;53.178;6.376;2023-01-08T01:24:34;9.50;99.90
51793;DHT22;37850;53.178;6.376;2023-01-08T01:27:00;9.50;99.90
51793;DHT22;37850;53.178;6.376;2023-01-08T01:29:26;9.50;99.90
51793;DHT22;37850;53.178;6.376;2023-01-08T01:31:51;9.50;99.90
51793;DHT22;37850;53.178;6.376;2023-01-08T01:34:17;9.50;99.90
51793;DHT22;37850;53.178;6.376;2023-01-08T01:36:43;9.50;99.90
51793;DHT22;37850;53.178;6.376;2023-01-08T01:39:09;9.50;99.90
51793;DHT22;37850;53.178;6.376;2023-01-08T01:47:26;9.50;99.90
51793;DHT22;37850;53.178;6.376;2023-01-08T01:50:07;9.50;99.90
51793;DHT22;37850;53.178;6.376;2023-01-08T01:52:44;9.50;99.90
51793;DHT22;37850;53.178;6.376;2023-01-08T01:55:12;9.40;99.90
51793;DHT22;37850;53.178;6.376;2023-01-08T01:57:39;9.40;99.90
51793;DHT22;37850;53.178;6.376;2023-01-08T02:00:08;9.40;99.90
51793;DHT22;37850;53.178;6.376;2023-01-08T02:02:34;9.40;99.90
51793;DHT22;37850;53.178;6.376;2023-01-08T02:05:01;9.70;99.90
51793;DHT22;37850;53.178;6.376;2023-01-08T02:07:47;9.30;99.90
51793;DHT22;37850;53.178;6.376;2023-01-08T02:13:05;9.30;99.90
51793;DHT22;37850;53.178;6.376;2023-01-08T02:18:18;9.30;99.90
51793;DHT22;37850;53.178;6.376;2023-01-08T02:26:32;9.20;99.90
51793;DHT22;37850;53.178;6.376;2023-01-08T02:29:09;9.20;99.90
51793;DHT22;37850;53.178;6.376;2023-01-08T02:31:39;9.10;99.90
51793;DHT22;37850;53.178;6.376;2023-01-08T02:34:06;9.10;99.90
51793;DHT22;37850;53.178;6.376;2023-01-08T02:36:43;9.10;99.90
51793;DHT22;37850;53.178;6.376;2023-01-08T02:42:12;9.00;99.90
51793;DHT22;37850;53.178;6.376;2023-01-08T02:45:00;9.00;99.90
51793;DHT22;37850;53.178;6.376;2023-01-08T02:50:12;8.90;99.90
51793;DHT22;37850;53.178;6.376;2023-01-08T02:53:12;8.90;99.90
51793;DHT22;37850;53.178;6.376;2023-01-08T02:55:43;8.80;99.90
51793;DHT22;37850;53.178;6.376;2023-01-08T02:58:10;8.80;99.90
51793;DHT22;37850;53.178;6.376;2023-01-08T03:00:37;8.80;99.90
51793;DHT22;37850;53.178;6.376;2023-01-08T03:03:08;8.80;99.90
51793;DHT22;37850;53.178;6.376;2023-01-08T03:05:37;8.70;99.90
51793;DHT22;37850;53.178;6.376;2023-01-08T03:08:04;8.70;99.90
51793;DHT22;37850;53.178;6.376;2023-01-08T03:10:31;8.70;99.90
51793;DHT22;37850;53.178;6.376;2023-01-08T03:13:22;8.60;99.90
51793;DHT22;37850;53.178;6.376;2023-01-08T03:15:50;8.60;99.90
51793;DHT22;37850;53.178;6.376;2023-01-08T03:18:20;8.60;99.90
51793;DHT22;37850;53.178;6.376;2023-01-08T03:20:50;8.50;99.90
51793;DHT22;37850;53.178;6.376;2023-01-08T03:23:17;8.50;99.90
51793;DHT22;37850;53.178;6.376;2023-01-08T03:25:46;8.50;99.90
51793;DHT22;37850;53.178;6.376;2023-01-08T03:28:21;8.50;99.90
51793;DHT22;37850;53.178;6.376;2023-01-08T03:30:49;8.50;99.90
51793;DHT22;37850;53.178;6.376;2023-01-08T03:33:18;8.70;99.90
51793;DHT22;37850;53.178;6.376;2023-01-08T03:35:46;8.40;99.90
51793;DHT22;37850;53.178;6.376;2023-01-08T03:38:21;8.40;99.90
51793;DHT22;37850;53.178;6.376;2023-01-08T03:40:53;8.40;99.90
51793;DHT22;37850;53.178;6.376;2023-01-08T03:43:21;8.40;99.90
51793;DHT22;37850;53.178;6.376;2023-01-08T03:45:52;8.40;99.90
51793;DHT22;37850;53.178;6.376;2023-01-08T03:48:19;8.30;99.90
51793;DHT22;37850;53.178;6.376;2023-01-08T03:50:46;8.30;99.90
51793;DHT22;37850;53.178;6.376;2023-01-08T03:53:12;8.40;99.90
51793;DHT22;37850;53.178;6.376;2023-01-08T03:55:38;8.30;99.90
51793;DHT22;37850;53.178;6.376;2023-01-08T03:58:03;8.30;99.90
51793;DHT22;37850;53.178;6.376;2023-01-08T04:00:29;8.30;99.90
51793;DHT22;37850;53.178;6.376;2023-01-08T04:02:55;8.40;99.90
51793;DHT22;37850;53.178;6.376;2023-01-08T04:05:21;8.30;99.90
51793;DHT22;37850;53.178;6.376;2023-01-08T04:07:47;8.30;99.90
51793;DHT22;37850;53.178;6.376;2023-01-08T04:10:12;8.30;99.90
51793;DHT22;37850;53.178;6.376;2023-01-08T04:12:41;8.30;99.90
51793;DHT22;37850;53.178;6.376;2023-01-08T04:15:08;8.30;99.90
51793;DHT22;37850;53.178;6.376;2023-01-08T04:17:34;8.30;99.90
51793;DHT22;37850;53.178;6.376;2023-01-08T04:20:00;8.20;99.90
51793;DHT22;37850;53.178;6.376;2023-01-08T04:22:25;8.20;99.90
51793;DHT22;37850;53.178;6.376;2023-01-08T04:24:51;8.20;99.90
51793;DHT22;37850;53.178;6.376;2023-01-08T04:27:17;8.20;99.90
51793;DHT22;37850;53.178;6.376;2023-01-08T04:29:42;8.20;99.90
51793;DHT22;37850;53.178;6.376;2023-01-08T04:32:08;8.20;99.90
51793;DHT22;37850;53.178;6.376;2023-01-08T04:34:34;8.20;99.90
51793;DHT22;37850;53.178;6.376;2023-01-08T04:37:00;8.20;99.90
51793;DHT22;37850;53.178;6.376;2023-01-08T04:39:26;8.10;99.90
51793;DHT22;37850;53.178;6.376;2023-01-08T04:41:52;8.10;99.90
51793;DHT22;37850;53.178;6.376;2023-01-08T04:44:18;8.10;99.90
51793;DHT22;37850;53.178;6.376;2023-01-08T04:46:44;8.10;99.90
51793;DHT22;37850;53.178;6.376;2023-01-08T04:49:10;8.10;99.90
51793;DHT22;37850;53.178;6.376;2023-01-08T04:51:36;8.10;99.90
51793;DHT22;37850;53.178;6.376;2023-01-08T04:54:02;8.10;99.90
51793;DHT22;37850;53.178;6.376;2023-01-08T04:56:28;8.10;99.90
51793;DHT22;37850;53.178;6.376;2023-01-08T04:58:54;8.10;99.90
51793;DHT22;37850;53.178;6.376;2023-01-08T05:01:25;8.40;99.90
51793;DHT22;37850;53.178;6.376;2023-01-08T05:03:57;8.10;99.90
51793;DHT22;37850;53.178;6.376;2023-01-08T05:06:24;8.10;99.90
51793;DHT22;37850;53.178;6.376;2023-01-08T05:08:49;8.60;99.90
51793;DHT22;37850;53.178;6.376;2023-01-08T05:11:15;8.10;99.90
51793;DHT22;37850;53.178;6.376;2023-01-08T05:13:41;8.10;99.90
51793;DHT22;37850;53.178;6.376;2023-01-08T05:16:07;8.10;99.90
51793;DHT22;37850;53.178;6.376;2023-01-08T05:18:33;8.20;99.90
51793;DHT22;37850;53.178;6.376;2023-01-08T05:21:03;8.10;99.90
51793;DHT22;37850;53.178;6.376;2023-01-08T05:23:30;8.10;99.90
51793;DHT22;37850;53.178;6.376;2023-01-08T05:26:02;8.10;99.90
51793;DHT22;37850;53.178;6.376;2023-01-08T05:28:28;8.10;99.90
51793;DHT22;37850;53.178;6.376;2023-01-08T05:30:54;8.10;99.90
51793;DHT22;37850;53.178;6.376;2023-01-08T05:33:21;8.50;99.90
51793;DHT22;37850;53.178;6.376;2023-01-08T05:35:47;8.10;99.90
51793;DHT22;37850;53.178;6.376;2023-01-08T05:38:13;8.10;99.90
51793;DHT22;37850;53.178;6.376;2023-01-08T05:40:38;8.10;99.90
51793;DHT22;37850;53.178;6.376;2023-01-08T05:43:04;8.10;99.90
51793;DHT22;37850;53.178;6.376;2023-01-08T05:45:31;8.20;99.90
51793;DHT22;37850;53.178;6.376;2023-01-08T05:47:56;8.20;99.90
51793;DHT22;37850;53.178;6.376;2023-01-08T05:50:22;8.20;99.90
51793;DHT22;37850;53.178;6.376;2023-01-08T05:52:51;8.20;99.90
51793;DHT22;37850;53.178;6.376;2023-01-08T05:55:17;8.20;99.90
51793;DHT22;37850;53.178;6.376;2023-01-08T05:57:43;8.10;99.90
51793;DHT22;37850;53.178;6.376;2023-01-08T06:00:10;8.20;99.90
51793;DHT22;37850;53.178;6.376;2023-01-08T06:02:36;8.20;99.90
51793;DHT22;37850;53.178;6.376;2023-01-08T06:05:02;8.20;99.90
51793;DHT22;37850;53.178;6.376;2023-01-08T06:07:28;8.10;99.90
51793;DHT22;37850;53.178;6.376;2023-01-08T06:09:54;8.20;99.90
51793;DHT22;37850;53.178;6.376;2023-01-08T06:12:20;8.10;99.90
51793;DHT22;37850;53.178;6.376;2023-01-08T06:14:45;8.10;99.90
51793;DHT22;37850;53.178;6.376;2023-01-08T06:17:11;8.10;99.90
51793;DHT22;37850;53.178;6.376;2023-01-08T06:19:37;8.10;99.90
51793;DHT22;37850;53.178;6.376;2023-01-08T06:22:06;8.10;99.90
51793;DHT22;37850;53.178;6.376;2023-01-08T06:24:31;8.00;99.90
51793;DHT22;37850;53.178;6.376;2023-01-08T06:26:57;8.00;99.90
51793;DHT22;37850;53.178;6.376;2023-01-08T06:29:23;8.00;99.90
51793;DHT22;37850;53.178;6.376;2023-01-08T06:31:49;8.00;99.90
51793;DHT22;37850;53.178;6.376;2023-01-08T06:34:14;8.00;99.90
51793;DHT22;37850;53.178;6.376;2023-01-08T06:36:40;8.50;99.90
51793;DHT22;37850;53.178;6.376;2023-01-08T06:39:06;8.00;99.90
51793;DHT22;37850;53.178;6.376;2023-01-08T06:41:32;8.30;99.90
51793;DHT22;37850;53.178;6.376;2023-01-08T06:43:58;8.00;99.90
51793;DHT22;37850;53.178;6.376;2023-01-08T06:46:24;8.00;99.90
51793;DHT22;37850;53.178;6.376;2023-01-08T06:48:50;8.00;99.90
51793;DHT22;37850;53.178;6.376;2023-01-08T06:51:15;8.00;99.90
51793;DHT22;37850;53.178;6.376;2023-01-08T06:53:41;8.00;99.90
51793;DHT22;37850;53.178;6.376;2023-01-08T06:56:07;8.00;99.90
51793;DHT22;37850;53.178;6.376;2023-01-08T06:58:37;7.90;99.90
51793;DHT22;37850;53.178;6.376;2023-01-08T07:01:03;7.90;99.90
51793;DHT22;37850;53.178;6.376;2023-01-08T07:03:29;7.90;99.90
51793;DHT22;37850;53.178;6.376;2023-01-08T07:05:55;7.90;99.90
51793;DHT22;37850;53.178;6.376;2023-01-08T07:08:21;7.90;99.90
51793;DHT22;37850;53.178;6.376;2023-01-08T07:10:47;7.90;99.90
51793;DHT22;37850;53.178;6.376;2023-01-08T07:13:14;7.90;99.90
51793;DHT22;37850;53.178;6.376;2023-01-08T07:15:41;7.80;99.90
51793;DHT22;37850;53.178;6.376;2023-01-08T07:18:08;7.80;99.90
51793;DHT22;37850;53.178;6.376;2023-01-08T07:20:34;7.80;99.90
51793;DHT22;37850;53.178;6.376;2023-01-08T07:23:05;7.80;99.90
51793;DHT22;37850;53.178;6.376;2023-01-08T07:25:31;7.80;99.90
51793;DHT22;37850;53.178;6.376;2023-01-08T07:27:58;7.80;99.90
51793;DHT22;37850;53.178;6.376;2023-01-08T07:30:24;7.70;99.90
51793;DHT22;37850;53.178;6.376;2023-01-08T07:32:50;7.80;99.90
51793;DHT22;37850;53.178;6.376;2023-01-08T07:35:16;7.70;99.90
51793;DHT22;37850;53.178;6.376;2023-01-08T07:37:42;7.70;99.90
51793;DHT22;37850;53.178;6.376;2023-01-08T07:40:10;7.70;99.90
51793;DHT22;37850;53.178;6.376;2023-01-08T07:42:36;7.70;99.90
51793;DHT22;37850;53.178;6.376;2023-01-08T07:45:03;7.60;99.90
51793;DHT22;37850;53.178;6.376;2023-01-08T07:47:29;7.60;99.90
51793;DHT22;37850;53.178;6.376;2023-01-08T07:49:55;7.60;99.90
51793;DHT22;37850;53.178;6.376;2023-01-08T07:52:20;7.60;99.90
51793;DHT22;37850;53.178;6.376;2023-01-08T07:54:46;7.60;99.90
51793;DHT22;37850;53.178;6.376;2023-01-08T07:57:12;7.80;99.90
51793;DHT22;37850;53.178;6.376;2023-01-08T07:59:37;7.70;99.90
51793;DHT22;37850;53.178;6.376;2023-01-08T08:02:03;7.60;99.90
51793;DHT22;37850;53.178;6.376;2023-01-08T08:04:29;7.50;99.90
51793;DHT22;37850;53.178;6.376;2023-01-08T08:06:55;7.60;99.90
51793;DHT22;37850;53.178;6.376;2023-01-08T08:09:21;7.50;99.90
51793;DHT22;37850;53.178;6.376;2023-01-08T08:11:46;7.50;99.90
51793;DHT22;37850;53.178;6.376;2023-01-08T08:14:12;7.50;99.90
51793;DHT22;37850;53.178;6.376;2023-01-08T08:16:38;7.80;99.90
51793;DHT22;37850;53.178;6.376;2023-01-08T08:19:04;7.70;99.90
51793;DHT22;37850;53.178;6.376;2023-01-08T08:21:30;7.40;99.90
51793;DHT22;37850;53.178;6.376;2023-01-08T08:23:56;7.50;99.90
51793;DHT22;37850;53.178;6.376;2023-01-08T08:26:22;7.40;99.90
51793;DHT22;37850;53.178;6.376;2023-01-08T08:28:48;7.40;99.90
51793;DHT22;37850;53.178;6.376;2023-01-08T08:31:14;7.40;99.90
51793;DHT22;37850;53.178;6.376;2023-01-08T08:33:40;7.40;99.90
51793;DHT22;37850;53.178;6.376;2023-01-08T08:36:06;7.90;99.90
51793;DHT22;37850;53.178;6.376;2023-01-08T08:38:32;7.40;99.90
51793;DHT22;37850;53.178;6.376;2023-01-08T08:40:58;7.40;99.90
51793;DHT22;37850;53.178;6.376;2023-01-08T08:43:24;7.40;99.90
51793;DHT22;37850;53.178;6.376;2023-01-08T08:45:50;7.40;99.90
51793;DHT22;37850;53.178;6.376;2023-01-08T08:48:16;7.40;99.90
51793;DHT22;37850;53.178;6.376;2023-01-08T08:50:42;7.40;99.90
51793;DHT22;37850;53.178;6.376;2023-01-08T08:53:09;7.40;99.90
51793;DHT22;37850;53.178;6.376;2023-01-08T08:55:35;7.40;99.90
51793;DHT22;37850;53.178;6.376;2023-01-08T08:58:06;7.40;99.90
51793;DHT22;37850;53.178;6.376;2023-01-08T09:00:32;7.40;99.90
51793;DHT22;37850;53.178;6.376;2023-01-08T09:02:58;7.80;99.90
51793;DHT22;37850;53.178;6.376;2023-01-08T09:05:24;7.40;99.90
51793;DHT22;37850;53.178;6.376;2023-01-08T09:07:50;7.50;99.90
51793;DHT22;37850;53.178;6.376;2023-01-08T09:10:15;7.50;99.90
51793;DHT22;37850;53.178;6.376;2023-01-08T09:12:41;7.50;99.90
51793;DHT22;37850;53.178;6.376;2023-01-08T09:15:08;7.50;99.90
51793;DHT22;37850;53.178;6.376;2023-01-08T09:17:34;7.50;99.90
51793;DHT22;37850;53.178;6.376;2023-01-08T09:20:02;7.60;99.90
51793;DHT22;37850;53.178;6.376;2023-01-08T09:22:27;7.60;99.90
51793;DHT22;37850;53.178;6.376;2023-01-08T09:24:54;7.60;99.90
51793;DHT22;37850;53.178;6.376;2023-01-08T09:27:20;7.60;99.90
51793;DHT22;37850;53.178;6.376;2023-01-08T09:29:45;7.60;99.90
51793;DHT22;37850;53.178;6.376;2023-01-08T09:32:11;7.70;99.90
51793;DHT22;37850;53.178;6.376;2023-01-08T09:34:37;7.70;99.90
51793;DHT22;37850;53.178;6.376;2023-01-08T09:37:03;7.70;99.90
51793;DHT22;37850;53.178;6.376;2023-01-08T09:39:29;7.70;99.90
51793;DHT22;37850;53.178;6.376;2023-01-08T09:41:57;7.70;99.90
51793;DHT22;37850;53.178;6.376;2023-01-08T09:44:30;7.90;99.90
51793;DHT22;37850;53.178;6.376;2023-01-08T09:46:57;7.80;99.90
51793;DHT22;37850;53.178;6.376;2023-01-08T09:49:28;7.80;99.90
51793;DHT22;37850;53.178;6.376;2023-01-08T09:51:57;7.80;99.90
51793;DHT22;37850;53.178;6.376;2023-01-08T09:54:25;7.90;99.90
51793;DHT22;37850;53.178;6.376;2023-01-08T09:56:51;7.80;99.90
51793;DHT22;37850;53.178;6.376;2023-01-08T09:59:18;7.90;99.90
51793;DHT22;37850;53.178;6.376;2023-01-08T10:01:45;7.90;99.90
51793;DHT22;37850;53.178;6.376;2023-01-08T10:04:21;7.90;99.90
51793;DHT22;37850;53.178;6.376;2023-01-08T10:07:07;7.90;99.90
51793;DHT22;37850;53.178;6.376;2023-01-08T10:09:36;7.90;99.90
51793;DHT22;37850;53.178;6.376;2023-01-08T10:12:04;8.00;99.90
51793;DHT22;37850;53.178;6.376;2023-01-08T10:14:38;8.00;99.90
51793;DHT22;37850;53.178;6.376;2023-01-08T10:17:27;8.00;99.90
51793;DHT22;37850;53.178;6.376;2023-01-08T10:19:56;8.00;99.90
51793;DHT22;37850;53.178;6.376;2023-01-08T10:22:29;8.10;99.90
51793;DHT22;37850;53.178;6.376;2023-01-08T10:25:11;8.10;99.90
51793;DHT22;37850;53.178;6.376;2023-01-08T10:27:52;8.20;99.90
51793;DHT22;37850;53.178;6.376;2023-01-08T10:30:22;8.10;99.90
51793;DHT22;37850;53.178;6.376;2023-01-08T10:32:54;8.10;99.90
51793;DHT22;37850;53.178;6.376;2023-01-08T10:35:27;8.10;99.90
51793;DHT22;37850;53.178;6.376;2023-01-08T10:37:55;8.20;99.90
51793;DHT22;37850;53.178;6.376;2023-01-08T10:43:27;8.20;99.90
51793;DHT22;37850;53.178;6.376;2023-01-08T10:45:56;8.10;99.90
51793;DHT22;37850;53.178;6.376;2023-01-08T10:48:27;8.20;99.90
51793;DHT22;37850;53.178;6.376;2023-01-08T10:51:04;8.20;99.90
51793;DHT22;37850;53.178;6.376;2023-01-08T10:53:30;8.20;99.90
51793;DHT22;37850;53.178;6.376;2023-01-08T10:56:00;8.20;99.90
51793;DHT22;37850;53.178;6.376;2023-01-08T10:58:28;8.20;99.90
51793;DHT22;37850;53.178;6.376;2023-01-08T11:00:54;8.20;99.90
51793;DHT22;37850;53.178;6.376;2023-01-08T11:03:35;8.20;99.90
51793;DHT22;37850;53.178;6.376;2023-01-08T11:06:12;8.20;99.90
51793;DHT22;37850;53.178;6.376;2023-01-08T11:08:52;8.20;99.90
51793;DHT22;37850;53.178;6.376;2023-01-08T11:11:18;8.30;99.90
51793;DHT22;37850;53.178;6.376;2023-01-08T11:13:57;8.30;99.90
51793;DHT22;37850;53.178;6.376;2023-01-08T11:16:34;8.20;99.90
51793;DHT22;37850;53.178;6.376;2023-01-08T11:19:01;8.30;99.90
51793;DHT22;37850;53.178;6.376;2023-01-08T11:21:31;8.70;99.90
51793;DHT22;37850;53.178;6.376;2023-01-08T11:24:16;8.30;99.90
51793;DHT22;37850;53.178;6.376;2023-01-08T11:26:49;8.40;99.90
51793;DHT22;37850;53.178;6.376;2023-01-08T11:29:40;8.40;99.90
51793;DHT22;37850;53.178;6.376;2023-01-08T11:35:12;8.40;99.90
51793;DHT22;37850;53.178;6.376;2023-01-08T11:37:45;8.40;99.90
51793;DHT22;37850;53.178;6.376;2023-01-08T11:40:16;8.50;99.90
51793;DHT22;37850;53.178;6.376;2023-01-08T11:46:01;8.50;99.90
51793;DHT22;37850;53.178;6.376;2023-01-08T11:54:16;8.50;99.90
51793;DHT22;37850;53.178;6.376;2023-01-08T11:59:53;8.50;99.90
51793;DHT22;37850;53.178;6.376;2023-01-08T12:05:31;8.60;99.90
51793;DHT22;37850;53.178;6.376;2023-01-08T12:11:26;8.60;99.90
51793;DHT22;37850;53.178;6.376;2023-01-08T12:19:51;8.60;99.90
51793;DHT22;37850;53.178;6.376;2023-01-08T12:30:35;8.70;99.90
51793;DHT22;37850;53.178;6.376;2023-01-08T12:33:28;8.70;99.90
51793;DHT22;37850;53.178;6.376;2023-01-08T12:36:02;9.00;99.90
51793;DHT22;37850;53.178;6.376;2023-01-08T12:38:36;8.70;99.90
51793;DHT22;37850;53.178;6.376;2023-01-08T12:41:08;8.60;99.90
51793;DHT22;37850;53.178;6.376;2023-01-08T12:44:04;8.70;99.90
51793;DHT22;37850;53.178;6.376;2023-01-08T12:46:37;8.70;99.90
51793;DHT22;37850;53.178;6.376;2023-01-08T12:49:04;8.70;99.90
51793;DHT22;37850;53.178;6.376;2023-01-08T12:51:55;8.70;99.90
51793;DHT22;37850;53.178;6.376;2023-01-08T12:57:00;8.70;99.90
51793;DHT22;37850;53.178;6.376;2023-01-08T13:04:43;8.70;99.90
51793;DHT22;37850;53.178;6.376;2023-01-08T13:07:31;8.80;99.90
51793;DHT22;37850;53.178;6.376;2023-01-08T13:13:05;8.70;99.90
51793;DHT22;37850;53.178;6.376;2023-01-08T13:15:33;8.80;99.90
51793;DHT22;37850;53.178;6.376;2023-01-08T13:18:16;8.80;99.90
51793;DHT22;37850;53.178;6.376;2023-01-08T13:20:57;8.80;99.90
51793;DHT22;37850;53.178;6.376;2023-01-08T13:23:28;8.80;99.90
51793;DHT22;37850;53.178;6.376;2023-01-08T13:25:56;8.80;99.90
51793;DHT22;37850;53.178;6.376;2023-01-08T13:33:39;8.80;99.90
51793;DHT22;37850;53.178;6.376;2023-01-08T13:38:40;8.80;99.90
51793;DHT22;37850;53.178;6.376;2023-01-08T13:44:04;8.80;99.90
51793;DHT22;37850;53.178;6.376;2023-01-08T13:46:36;8.80;99.90
51793;DHT22;37850;53.178;6.376;2023-01-08T13:49:08;8.70;99.90
51793;DHT22;37850;53.178;6.376;2023-01-08T13:56:40;8.80;99.90
51793;DHT22;37850;53.178;6.376;2023-01-08T13:59:22;8.80;99.90
51793;DHT22;37850;53.178;6.376;2023-01-08T14:01:56;8.70;99.90
51793;DHT22;37850;53.178;6.376;2023-01-08T14:04:23;8.80;99.90
51793;DHT22;37850;53.178;6.376;2023-01-08T14:06:49;8.90;99.90
51793;DHT22;37850;53.178;6.376;2023-01-08T14:09:26;8.80;99.90
51793;DHT22;37850;53.178;6.376;2023-01-08T14:11:56;8.70;99.90
51793;DHT22;37850;53.178;6.376;2023-01-08T14:14:23;8.70;99.90
51793;DHT22;37850;53.178;6.376;2023-01-08T14:16:51;8.70;99.90
51793;DHT22;37850;53.178;6.376;2023-01-08T14:19:20;8.70;99.90
51793;DHT22;37850;53.178;6.376;2023-01-08T14:21:54;8.70;99.90
51793;DHT22;37850;53.178;6.376;2023-01-08T14:24:22;8.70;99.90
51793;DHT22;37850;53.178;6.376;2023-01-08T14:26:53;8.70;99.90
51793;DHT22;37850;53.178;6.376;2023-01-08T14:29:23;8.70;99.90
51793;DHT22;37850;53.178;6.376;2023-01-08T14:31:52;8.70;99.90
51793;DHT22;37850;53.178;6.376;2023-01-08T14:34:19;9.00;99.90
51793;DHT22;37850;53.178;6.376;2023-01-08T14:36:46;8.70;99.90
51793;DHT22;37850;53.178;6.376;2023-01-08T14:41:49;8.60;99.90
51793;DHT22;37850;53.178;6.376;2023-01-08T14:44:34;8.60;99.90
51793;DHT22;37850;53.178;6.376;2023-01-08T14:47:00;8.60;99.90
51793;DHT22;37850;53.178;6.376;2023-01-08T14:49:29;9.00;99.90
51793;DHT22;37850;53.178;6.376;2023-01-08T14:51:59;8.60;99.90
51793;DHT22;37850;53.178;6.376;2023-01-08T14:54:30;8.50;99.90
51793;DHT22;37850;53.178;6.376;2023-01-08T14:56:58;8.50;99.90
51793;DHT22;37850;53.178;6.376;2023-01-08T14:59:28;8.50;99.90
51793;DHT22;37850;53.178;6.376;2023-01-08T15:01:58;8.50;99.90
51793;DHT22;37850;53.178;6.376;2023-01-08T15:04:26;8.50;99.90
51793;DHT22;37850;53.178;6.376;2023-01-08T15:07:07;8.50;99.90
51793;DHT22;37850;53.178;6.376;2023-01-08T15:09:34;8.50;99.90
51793;DHT22;37850;53.178;6.376;2023-01-08T15:12:02;8.50;99.90
51793;DHT22;37850;53.178;6.376;2023-01-08T15:14:30;8.40;99.90
51793;DHT22;37850;53.178;6.376;2023-01-08T15:17:08;8.50;99.90
51793;DHT22;37850;53.178;6.376;2023-01-08T15:19:40;8.40;99.90
51793;DHT22;37850;53.178;6.376;2023-01-08T15:22:29;8.60;99.90
51793;DHT22;37850;53.178;6.376;2023-01-08T15:25:02;8.40;99.90
51793;DHT22;37850;53.178;6.376;2023-01-08T15:27:29;8.30;99.90
51793;DHT22;37850;53.178;6.376;2023-01-08T15:30:03;8.30;99.90
51793;DHT22;37850;53.178;6.376;2023-01-08T15:32:31;8.30;99.90
51793;DHT22;37850;53.178;6.376;2023-01-08T15:34:59;8.30;99.90
51793;DHT22;37850;53.178;6.376;2023-01-08T15:37:25;8.30;99.90
51793;DHT22;37850;53.178;6.376;2023-01-08T15:39:51;8.20;99.90
51793;DHT22;37850;53.178;6.376;2023-01-08T15:42:28;8.20;99.90
51793;DHT22;37850;53.178;6.376;2023-01-08T15:45:21;8.30;99.90
51793;DHT22;37850;53.178;6.376;2023-01-08T15:47:47;8.10;99.90
51793;DHT22;37850;53.178;6.376;2023-01-08T15:50:13;8.10;99.90
51793;DHT22;37850;53.178;6.376;2023-01-08T15:52:41;8.10;99.90
51793;DHT22;37850;53.178;6.376;2023-01-08T15:55:16;8.10;99.90
51793;DHT22;37850;53.178;6.376;2023-01-08T15:57:43;8.00;99.90
51793;DHT22;37850;53.178;6.376;2023-01-08T16:00:11;8.20;99.90
51793;DHT22;37850;53.178;6.376;2023-01-08T16:02:42;7.90;99.90
51793;DHT22;37850;53.178;6.376;2023-01-08T16:05:08;7.90;99.90
51793;DHT22;37850;53.178;6.376;2023-01-08T16:07:34;7.90;99.90
51793;DHT22;37850;53.178;6.376;2023-01-08T16:10:00;8.30;99.90
51793;DHT22;37850;53.178;6.376;2023-01-08T16:12:26;7.80;99.90
51793;DHT22;37850;53.178;6.376;2023-01-08T16:14:52;7.80;99.90
51793;DHT22;37850;53.178;6.376;2023-01-08T16:17:18;7.70;99.90
51793;DHT22;37850;53.178;6.376;2023-01-08T16:19:44;7.70;99.90
51793;DHT22;37850;53.178;6.376;2023-01-08T16:22:10;7.70;99.90
51793;DHT22;37850;53.178;6.376;2023-01-08T16:24:35;7.70;99.90
51793;DHT22;37850;53.178;6.376;2023-01-08T16:27:01;7.70;99.90
51793;DHT22;37850;53.178;6.376;2023-01-08T16:29:27;7.70;99.90
51793;DHT22;37850;53.178;6.376;2023-01-08T16:31:53;7.60;99.90
51793;DHT22;37850;53.178;6.376;2023-01-08T16:34:20;7.60;99.90
51793;DHT22;37850;53.178;6.376;2023-01-08T16:36:49;7.60;99.90
51793;DHT22;37850;53.178;6.376;2023-01-08T16:39:16;7.50;99.90
51793;DHT22;37850;53.178;6.376;2023-01-08T16:41:42;7.60;99.90
51793;DHT22;37850;53.178;6.376;2023-01-08T16:44:19;8.00;99.90
51793;DHT22;37850;53.178;6.376;2023-01-08T16:46:47;7.50;99.90
51793;DHT22;37850;53.178;6.376;2023-01-08T16:49:13;7.50;99.90
51793;DHT22;37850;53.178;6.376;2023-01-08T16:51:39;7.50;99.90
51793;DHT22;37850;53.178;6.376;2023-01-08T16:54:05;7.50;99.90
51793;DHT22;37850;53.178;6.376;2023-01-08T16:56:30;7.50;99.90
51793;DHT22;37850;53.178;6.376;2023-01-08T16:58:56;7.60;99.90
51793;DHT22;37850;53.178;6.376;2023-01-08T17:01:22;7.40;99.90
51793;DHT22;37850;53.178;6.376;2023-01-08T17:03:52;6.90;99.90
51793;DHT22;37850;53.178;6.376;2023-01-08T17:06:18;7.30;99.90
51793;DHT22;37850;53.178;6.376;2023-01-08T17:08:43;7.30;99.90
51793;DHT22;37850;53.178;6.376;2023-01-08T17:11:12;7.30;99.90
51793;DHT22;37850;53.178;6.376;2023-01-08T17:13:38;7.20;99.90
51793;DHT22;37850;53.178;6.376;2023-01-08T17:16:06;7.20;99.90
51793;DHT22;37850;53.178;6.376;2023-01-08T17:18:35;7.20;99.90
51793;DHT22;37850;53.178;6.376;2023-01-08T17:21:02;7.10;99.90
51793;DHT22;37850;53.178;6.376;2023-01-08T17:23:28;7.10;99.90
51793;DHT22;37850;53.178;6.376;2023-01-08T17:25:54;7.20;99.90